Jaipur, India

5:25 PM IST on September 19, 2014 (GMT +0530)
Jaipur | Change Station
CLOSE
Current Station
Airport
Location: Jaipur,
Elevation: 1280 ft
Nearby Weather Stations

Elev 1280 ft 26.82 °N, 75.81 °E | Updated 25 minutes ago

Haze
Haze
93 °F
Feels Like 96 °F
N
9
Wind Variable Wind from WNW

Today
High -- | Low -- °F
--% Chance of Precip.
Yesterday
High -- | Low -- °F
Precip. -- in
6:13 AM 6:27 PM
Waning Crescent, 19% visible
Pressure 29.71 in
Visibility 2.5 miles
Clouds Few 10000 ft
Heat Index 96 °F
Dew Point 66 °F
Humidity 41%
Rainfall 0.00 in
Snow Depth Not available.
UV 2 out of 12
Pollen Not available.
Air Quality Not available.
Flu Activity Not available.
METAR VIJP 191130Z 29008KT 4000 HZ FEW100 34/19 Q1006 NOSIG

More Conditions Fewer Conditions

Pressure 29.71 in
Visibility 2.5 miles
Clouds Few 10000 ft
Heat Index 96 °F
Dew Point 66 °F
Humidity 41%
Rainfall 0.00 in
Snow Depth Not available.
UV 2 out of 12
Pollen Not available.
Air Quality Not available.
Flu Activity Not available.
METAR VIJP 191130Z 29008KT 4000 HZ FEW100 34/19 Q1006 NOSIG

More Conditions Fewer Conditions

10-Day Weather Forecast

Almanac

Astronomy

Sep. 19, 2014 Rise Set
Actual Time 6:13 AM IST 6:27 PM IST
Civil Twilight 5:50 AM IST 6:50 PM IST
Nautical Twilight 5:23 AM IST 7:17 PM IST
Astronomical Twilight 4:56 AM IST 7:44 PM IST
Moon 1:54 AM IST 3:21 PM IST
Length of Visible Light 12h 59m
Length of Day
12h 13m
Tomorrow will be 1m 35s shorter.
Waning Crescent, 19% of the Moon is Illuminated
Today
Waning Crescent
Sep 24
New
Oct 1
First Quarter
Oct 8
Full
Oct 15
Last Quarter

Yesterday's Extremes

Country Highs Country Lows

Community

WunderPhotos

Upload Photos

1,754,597 photos uploaded!

Nearby

Snow Depth

Not available.

Earthquake Activity

City Distance Mag. Time & Date
No recent earthquake activity has been reported nearby.
Minimum magnitude displayed is 2.5.

Coastal Water Temperatures

Place Temperature
No Stations Reporting

Nearby Weather Stations